createdAt,value
2018-12-24T00:00:49.623Z,1.10
2018-12-24T00:03:37.539Z,1.23
2018-12-24T00:06:25.742Z,1.40
2018-12-24T00:09:13.666Z,0.97
2018-12-24T00:12:06.950Z,1.13
2018-12-24T00:14:51.043Z,1.50
2018-12-24T00:17:39.171Z,1.10
2018-12-24T00:20:27.188Z,1.30
2018-12-24T00:23:15.351Z,1.37
2018-12-24T00:26:03.006Z,0.90
2018-12-24T00:28:50.954Z,1.00
2018-12-24T00:31:38.417Z,1.27
2018-12-24T00:34:26.082Z,1.00
2018-12-24T00:37:13.997Z,1.03
2018-12-24T00:40:02.610Z,0.90
2018-12-24T00:42:50.534Z,1.03
2018-12-24T00:45:38.268Z,1.00
2018-12-24T00:48:25.835Z,1.00
2018-12-24T00:51:13.709Z,0.90
2018-12-24T00:54:01.478Z,1.23
2018-12-24T00:56:49.346Z,1.00
2018-12-24T00:59:37.150Z,1.00
2018-12-24T01:02:25.060Z,0.93
2018-12-24T01:05:12.941Z,1.20
2018-12-24T01:08:00.895Z,1.00
2018-12-24T01:10:48.835Z,1.20
2018-12-24T01:13:37.064Z,1.00
2018-12-24T01:16:25.374Z,1.00
2018-12-24T01:19:13.452Z,0.90
2018-12-24T01:22:01.238Z,1.00
2018-12-24T01:24:49.437Z,1.80
2018-12-24T01:27:37.672Z,1.00
2018-12-24T01:30:25.744Z,1.30
2018-12-24T01:33:13.569Z,1.07
2018-12-24T01:36:01.773Z,1.10
2018-12-24T01:38:49.351Z,1.20
2018-12-24T01:41:37.423Z,1.20
2018-12-24T01:44:25.504Z,0.87
2018-12-24T01:47:13.608Z,1.00
2018-12-24T01:50:01.740Z,0.97
2018-12-24T01:52:50.033Z,0.80
2018-12-24T01:55:38.165Z,0.93
2018-12-24T01:58:26.008Z,0.93
2018-12-24T02:01:13.668Z,0.97
2018-12-24T02:04:01.156Z,1.00
2018-12-24T02:06:49.150Z,0.87
2018-12-24T02:09:38.301Z,1.00
2018-12-24T02:12:26.551Z,0.90
2018-12-24T02:15:14.700Z,0.97
2018-12-24T02:18:03.144Z,1.00
2018-12-24T02:20:50.946Z,1.33
2018-12-24T02:23:38.811Z,0.80
2018-12-24T02:26:27.158Z,0.90
2018-12-24T02:29:15.278Z,1.00
2018-12-24T02:32:03.264Z,0.90
2018-12-24T02:34:51.530Z,1.17
2018-12-24T02:37:39.404Z,1.20
2018-12-24T02:40:27.782Z,1.10
2018-12-24T02:43:15.417Z,1.40
2018-12-24T02:46:03.864Z,1.20
2018-12-24T02:48:51.657Z,1.30
2018-12-24T02:51:39.823Z,1.20
2018-12-24T02:54:27.614Z,1.30
2018-12-24T02:57:16.064Z,1.33
2018-12-24T03:00:04.027Z,1.20
2018-12-24T03:02:51.815Z,1.50
2018-12-24T03:05:39.691Z,1.60
2018-12-24T03:08:27.893Z,1.43
2018-12-24T03:11:15.710Z,1.60
2018-12-24T03:14:03.361Z,1.73
2018-12-24T03:16:51.019Z,1.30
2018-12-24T03:19:39.118Z,1.40
2018-12-24T03:22:27.530Z,1.30
2018-12-24T03:25:14.993Z,1.30
2018-12-24T03:28:03.278Z,1.40
2018-12-24T03:30:51.794Z,1.30
2018-12-24T03:33:39.593Z,1.20
2018-12-24T03:36:27.377Z,1.50
2018-12-24T03:39:15.208Z,1.57
2018-12-24T03:42:02.915Z,1.70
2018-12-24T03:44:50.754Z,1.93
2018-12-24T03:47:38.865Z,1.83
2018-12-24T03:50:26.476Z,1.77
2018-12-24T03:53:14.355Z,1.90
2018-12-24T03:56:02.100Z,1.80
2018-12-24T03:58:50.029Z,1.80
2018-12-24T04:01:37.810Z,1.60
2018-12-24T04:04:25.922Z,1.60
2018-12-24T04:07:14.143Z,1.20
2018-12-24T04:10:01.646Z,1.00
2018-12-24T04:12:50.085Z,1.20
2018-12-24T04:15:38.208Z,1.10
2018-12-24T04:18:25.989Z,1.20
2018-12-24T04:21:13.981Z,1.10
2018-12-24T04:24:44.632Z,1.20
2018-12-24T04:28:34.112Z,1.20
2018-12-24T04:31:38.492Z,1.30
2018-12-24T04:34:45.765Z,1.70
2018-12-24T04:37:37.893Z,1.50
2018-12-24T04:40:38.597Z,1.60
2018-12-24T04:43:51.349Z,1.30
2018-12-24T04:47:05.711Z,1.83
2018-12-24T04:50:02.564Z,1.20
2018-12-24T04:53:38.257Z,1.27
2018-12-24T04:56:36.714Z,1.10
2018-12-24T05:00:03.197Z,1.30
2018-12-24T05:15:14.832Z,1.40
2018-12-24T05:18:40.559Z,1.30
2018-12-24T05:29:58.248Z,1.27
2018-12-24T05:45:19.858Z,1.40
2018-12-24T05:57:00.076Z,1.40
2018-12-24T06:04:33.418Z,1.40
2018-12-24T06:08:17.364Z,1.60
2018-12-24T06:20:14.284Z,1.80
2018-12-24T06:24:19.723Z,2.20
2018-12-24T06:32:49.068Z,1.80
2018-12-24T06:37:47.396Z,1.73
2018-12-24T06:39:34.173Z,2.27
2018-12-24T06:51:03.949Z,1.70
2018-12-24T06:54:25.980Z,1.70
2018-12-24T06:54:55.981Z,1.67
2018-12-24T06:58:43.312Z,1.70
2018-12-24T07:14:15.207Z,1.80
2018-12-24T07:21:31.929Z,1.97
2018-12-24T07:25:12.988Z,2.10
2018-12-24T07:32:48.978Z,2.70
2018-12-24T07:42:40.288Z,2.83
2018-12-24T07:54:55.428Z,2.63
2018-12-24T07:58:48.555Z,2.40
2018-12-24T08:05:43.347Z,1.83
2018-12-24T08:08:31.533Z,1.90
2018-12-24T08:11:32.017Z,2.10
2018-12-24T08:14:21.630Z,2.67
2018-12-24T08:17:20.157Z,2.27
2018-12-24T08:20:19.655Z,2.43
2018-12-24T08:23:11.161Z,2.90
2018-12-24T08:26:19.310Z,4.60
2018-12-24T08:29:08.592Z,2.97
2018-12-24T08:32:19.626Z,12.93
2018-12-24T08:34:59.275Z,6.03
2018-12-24T08:37:50.966Z,2.30
2018-12-24T08:40:39.161Z,2.80
2018-12-24T08:43:28.383Z,1.90
2018-12-24T08:46:33.928Z,5.10
2018-12-24T08:49:22.384Z,4.83
2018-12-24T08:52:33.304Z,2.77
2018-12-24T08:55:21.684Z,3.23
2018-12-24T08:58:21.386Z,2.10
2018-12-24T09:01:09.411Z,10.00
2018-12-24T09:03:59.082Z,3.27
2018-12-24T09:06:50.412Z,2.13
2018-12-24T09:09:38.914Z,2.43
2018-12-24T09:17:50.362Z,2.60
2018-12-24T09:20:26.216Z,3.30
2018-12-24T09:23:20.351Z,3.07
2018-12-24T09:26:38.330Z,2.87
2018-12-24T09:29:27.674Z,2.57
2018-12-24T09:32:20.696Z,2.40
2018-12-24T09:35:09.370Z,2.63
2018-12-24T09:38:17.056Z,2.80
2018-12-24T09:41:47.003Z,2.80
2018-12-24T09:45:49.439Z,2.80
2018-12-24T09:48:37.462Z,2.50
2018-12-24T09:51:28.535Z,2.50
2018-12-24T09:54:20.078Z,3.17
2018-12-24T09:57:11.214Z,2.80
2018-12-24T10:00:52.168Z,2.60
2018-12-24T10:03:51.028Z,2.70
2018-12-24T10:06:48.662Z,2.53
2018-12-24T10:09:39.458Z,2.63
2018-12-24T10:12:28.951Z,2.80
2018-12-24T10:15:17.762Z,2.90
2018-12-24T10:18:05.880Z,2.80
2018-12-24T10:20:54.695Z,2.73
2018-12-24T10:23:45.583Z,2.60
2018-12-24T10:26:35.636Z,2.70
2018-12-24T10:29:26.300Z,2.30
2018-12-24T10:32:14.399Z,2.40
2018-12-24T10:35:02.776Z,2.47
2018-12-24T10:37:51.994Z,2.40
2018-12-24T10:40:49.582Z,2.63
2018-12-24T10:43:37.788Z,2.40
2018-12-24T10:46:25.560Z,2.80
2018-12-24T10:49:13.879Z,2.60
2018-12-24T10:52:01.768Z,2.27
2018-12-24T10:54:50.188Z,2.00
2018-12-24T10:57:38.185Z,2.07
2018-12-24T11:00:26.028Z,2.10
2018-12-24T11:03:14.123Z,2.00
2018-12-24T11:06:02.135Z,1.97
2018-12-24T11:08:49.696Z,2.20
2018-12-24T11:11:38.909Z,3.43
2018-12-24T11:14:27.533Z,2.67
2018-12-24T11:17:15.648Z,2.40
2018-12-24T11:20:03.746Z,2.70
2018-12-24T11:22:51.859Z,2.40
2018-12-24T11:25:39.441Z,2.60
2018-12-24T11:28:26.983Z,2.43
2018-12-24T11:31:15.229Z,2.37
2018-12-24T11:34:03.329Z,2.50
2018-12-24T11:36:51.529Z,2.80
2018-12-24T11:39:39.932Z,2.43
2018-12-24T11:42:28.684Z,2.30
2018-12-24T11:45:16.581Z,1.80
2018-12-24T11:48:04.415Z,1.90
2018-12-24T11:50:52.502Z,2.00
2018-12-24T11:53:40.668Z,1.90
2018-12-24T11:56:28.522Z,2.10
2018-12-24T11:59:16.367Z,2.00
2018-12-24T12:02:09.897Z,1.97
2018-12-24T12:04:53.851Z,2.00
2018-12-24T12:07:41.445Z,2.20
2018-12-24T12:10:29.505Z,1.60
2018-12-24T12:13:17.481Z,1.97
2018-12-24T12:16:05.517Z,2.23
2018-12-24T12:18:53.588Z,1.87
2018-12-24T12:21:41.633Z,3.00
2018-12-24T12:24:29.726Z,2.07
2018-12-24T12:27:17.653Z,2.20
2018-12-24T12:30:06.974Z,3.20
2018-12-24T12:32:55.101Z,3.50
2018-12-24T12:35:43.008Z,2.50
2018-12-24T12:38:30.726Z,3.40
2018-12-24T12:41:18.636Z,3.83
2018-12-24T12:44:06.540Z,3.40
2018-12-24T12:46:54.469Z,4.30
2018-12-24T12:49:42.108Z,3.97
2018-12-24T12:52:30.118Z,4.40
2018-12-24T12:55:17.889Z,4.30
2018-12-24T12:58:06.378Z,3.43
2018-12-24T13:00:54.431Z,2.50
2018-12-24T13:03:42.116Z,2.77
2018-12-24T13:06:29.943Z,3.20
2018-12-24T13:09:18.053Z,2.50
2018-12-24T13:12:06.013Z,2.50
2018-12-24T13:14:54.117Z,2.13
2018-12-24T13:17:42.512Z,2.10
2018-12-24T13:20:30.337Z,2.53
2018-12-24T13:23:18.351Z,2.30
2018-12-24T13:26:06.031Z,2.10
2018-12-24T13:28:53.858Z,2.17
2018-12-24T13:31:42.063Z,2.60
2018-12-24T13:34:29.824Z,2.50
2018-12-24T13:37:17.780Z,2.73
2018-12-24T13:40:06.210Z,3.23
2018-12-24T13:42:54.061Z,3.33
2018-12-24T13:45:42.472Z,6.47
2018-12-24T13:48:30.540Z,3.80
2018-12-24T13:51:18.933Z,3.93
2018-12-24T13:54:06.491Z,4.60
2018-12-24T13:56:54.055Z,4.37
2018-12-24T13:59:42.188Z,6.00
2018-12-24T14:02:29.703Z,6.30
2018-12-24T14:05:17.296Z,5.93
2018-12-24T14:08:05.131Z,5.30
2018-12-24T14:10:52.901Z,7.63
2018-12-24T14:13:40.811Z,4.40
2018-12-24T14:16:28.590Z,4.93
2018-12-24T14:19:16.611Z,5.10
2018-12-24T14:22:04.541Z,5.67
2018-12-24T14:24:52.894Z,5.43
2018-12-24T14:27:41.035Z,5.40
2018-12-24T14:30:28.907Z,5.33
2018-12-24T14:33:17.370Z,4.50
2018-12-24T14:36:06.837Z,4.73
2018-12-24T14:38:54.890Z,4.90
2018-12-24T14:41:44.064Z,4.67
2018-12-24T14:44:31.807Z,5.43
2018-12-24T14:47:19.283Z,4.80
2018-12-24T14:50:08.043Z,5.00
2018-12-24T14:52:55.865Z,4.63
2018-12-24T14:55:44.376Z,3.80
2018-12-24T14:59:12.789Z,3.87
2018-12-24T15:02:00.163Z,3.00
2018-12-24T15:04:49.945Z,2.93
2018-12-24T15:07:37.111Z,3.07
2018-12-24T15:10:24.794Z,3.37
2018-12-24T15:13:12.378Z,2.73
2018-12-24T15:15:59.813Z,2.80
2018-12-24T15:18:47.465Z,3.00
2018-12-24T15:21:35.380Z,3.03
2018-12-24T15:24:23.377Z,3.93
2018-12-24T15:27:11.184Z,3.63
2018-12-24T15:29:58.673Z,3.40
2018-12-24T15:32:46.280Z,5.77
2018-12-24T15:35:33.719Z,3.53
2018-12-24T15:38:21.483Z,27.77
2018-12-24T15:41:09.999Z,6.33
2018-12-24T15:43:57.579Z,4.40
2018-12-24T15:46:45.052Z,5.30
2018-12-24T15:49:32.795Z,5.37
2018-12-24T15:52:20.224Z,7.00
2018-12-24T15:55:07.821Z,5.90
2018-12-24T15:57:55.493Z,6.17
2018-12-24T16:00:42.907Z,4.53
2018-12-24T16:03:36.819Z,4.93
2018-12-24T16:06:19.633Z,7.03
2018-12-24T16:09:07.703Z,8.27
2018-12-24T16:11:55.672Z,7.90
2018-12-24T16:14:43.004Z,7.47
2018-12-24T16:17:30.430Z,7.57
2018-12-24T16:20:17.846Z,6.20
2018-12-24T16:23:05.514Z,4.50
2018-12-24T16:25:53.100Z,5.57
2018-12-24T16:28:40.729Z,4.07
2018-12-24T16:31:29.784Z,4.50
2018-12-24T16:34:17.212Z,3.70
2018-12-24T16:37:05.151Z,4.13
2018-12-24T16:39:53.238Z,4.63
2018-12-24T16:42:41.155Z,4.30
2018-12-24T16:45:28.710Z,4.43
2018-12-24T16:48:15.856Z,5.00
2018-12-24T16:51:03.219Z,5.13
2018-12-24T16:53:51.068Z,4.97
2018-12-24T16:56:40.122Z,5.73
2018-12-24T16:59:27.454Z,4.97
2018-12-24T17:02:16.869Z,5.27
2018-12-24T17:05:04.267Z,5.17
2018-12-24T17:07:51.616Z,5.47
2018-12-24T17:10:38.760Z,6.33
2018-12-24T17:13:26.521Z,6.17
2018-12-24T17:16:15.947Z,5.83
2018-12-24T17:19:03.910Z,5.40
2018-12-24T17:21:51.761Z,5.77
2018-12-24T17:24:39.389Z,5.73
2018-12-24T17:27:26.844Z,5.37
2018-12-24T17:30:14.034Z,5.87
2018-12-24T17:33:01.784Z,5.73
2018-12-24T17:35:49.522Z,5.67
2018-12-24T17:38:36.896Z,6.17
2018-12-24T17:41:25.218Z,6.63
2018-12-24T17:44:12.824Z,7.13
2018-12-24T17:47:01.419Z,7.40
2018-12-24T17:49:48.976Z,6.60
2018-12-24T17:52:36.668Z,6.87
2018-12-24T17:55:24.054Z,7.13
2018-12-24T17:58:11.212Z,7.30
2018-12-24T18:00:58.978Z,7.13
2018-12-24T18:03:46.417Z,9.17
2018-12-24T18:06:34.440Z,8.33
2018-12-24T18:09:22.111Z,7.50
2018-12-24T18:12:10.628Z,7.40
2018-12-24T18:14:58.292Z,7.57
2018-12-24T18:17:45.814Z,6.90
2018-12-24T18:20:33.484Z,7.90
2018-12-24T18:23:21.040Z,8.00
2018-12-24T18:26:08.447Z,8.13
2018-12-24T18:28:56.230Z,8.47
2018-12-24T18:31:43.636Z,8.00
2018-12-24T18:34:30.986Z,8.63
2018-12-24T18:37:18.622Z,8.87
2018-12-24T18:40:05.826Z,8.17
2018-12-24T18:42:53.249Z,8.53
2018-12-24T18:45:40.854Z,9.50
2018-12-24T18:48:28.400Z,10.13
2018-12-24T18:51:15.821Z,11.30
2018-12-24T18:54:02.973Z,11.37
2018-12-24T18:56:50.389Z,12.10
2018-12-24T18:59:38.236Z,11.47
2018-12-24T19:02:25.855Z,12.33
2018-12-24T19:05:13.526Z,11.03
2018-12-24T19:08:01.170Z,10.47
2018-12-24T19:10:49.704Z,11.77
2018-12-24T19:13:37.436Z,12.10
2018-12-24T19:16:24.596Z,12.33
2018-12-24T19:19:12.241Z,13.07
2018-12-24T19:21:59.291Z,13.03
2018-12-24T19:24:46.862Z,11.93
2018-12-24T19:27:34.318Z,11.80
2018-12-24T19:30:21.993Z,11.60
2018-12-24T19:33:09.074Z,12.23
2018-12-24T19:35:56.475Z,11.63
2018-12-24T19:38:44.236Z,11.97
2018-12-24T19:41:31.574Z,12.20
2018-12-24T19:44:19.357Z,11.57
2018-12-24T19:47:06.860Z,12.83
2018-12-24T19:49:54.259Z,11.67
2018-12-24T19:52:41.809Z,12.03
2018-12-24T19:55:29.442Z,12.73
2018-12-24T19:58:17.026Z,13.27
2018-12-24T20:01:04.714Z,12.90
2018-12-24T20:03:52.074Z,13.00
2018-12-24T20:06:39.685Z,13.73
2018-12-24T20:09:27.363Z,14.00
2018-12-24T20:12:14.722Z,13.77
2018-12-24T20:15:02.034Z,13.47
2018-12-24T20:17:49.465Z,17.57
2018-12-24T20:20:36.717Z,16.63
2018-12-24T20:23:23.906Z,16.13
2018-12-24T20:26:10.960Z,14.47
2018-12-24T20:28:58.401Z,14.17
2018-12-24T20:31:45.830Z,17.50
2018-12-24T20:34:33.353Z,15.33
2018-12-24T20:37:21.275Z,14.93
2018-12-24T20:40:08.883Z,13.80
2018-12-24T20:42:56.221Z,14.07
2018-12-24T20:45:43.520Z,13.23
2018-12-24T20:48:31.278Z,14.33
2018-12-24T20:51:18.715Z,13.03
2018-12-24T20:54:06.136Z,13.37
2018-12-24T20:56:54.452Z,13.20
2018-12-24T20:59:45.235Z,13.13
2018-12-24T21:02:33.221Z,11.70
2018-12-24T21:05:20.775Z,12.63
2018-12-24T21:08:08.202Z,12.47
2018-12-24T21:10:55.844Z,12.67
2018-12-24T21:13:43.138Z,12.47
2018-12-24T21:16:30.430Z,13.00
2018-12-24T21:19:19.740Z,12.00
2018-12-24T21:22:10.836Z,11.93
2018-12-24T21:25:01.008Z,12.90
2018-12-24T21:27:48.150Z,14.70
2018-12-24T21:30:35.207Z,13.93
2018-12-24T21:33:22.493Z,13.70
2018-12-24T21:36:10.438Z,13.50
2018-12-24T21:38:57.729Z,14.60
2018-12-24T21:41:45.052Z,13.93
2018-12-24T21:44:32.336Z,14.20
2018-12-24T21:47:19.621Z,13.83
2018-12-24T21:50:07.058Z,15.03
2018-12-24T21:52:54.360Z,16.13
2018-12-24T21:55:42.312Z,17.90
2018-12-24T21:58:29.920Z,17.10
2018-12-24T22:01:18.323Z,21.63
2018-12-24T22:04:06.158Z,22.37
2018-12-24T22:06:54.046Z,19.23
2018-12-24T22:09:41.698Z,18.07
2018-12-24T22:12:29.238Z,18.03
2018-12-24T22:15:16.575Z,27.70
2018-12-24T22:18:03.807Z,20.07
2018-12-24T22:20:51.011Z,18.30
2018-12-24T22:23:38.330Z,16.33
2018-12-24T22:26:27.004Z,14.33
2018-12-24T22:29:14.611Z,15.13
2018-12-24T22:32:02.268Z,14.03
2018-12-24T22:34:49.600Z,16.67
2018-12-24T22:37:37.195Z,15.10
2018-12-24T22:40:24.225Z,13.07
2018-12-24T22:43:11.567Z,12.40
2018-12-24T22:45:58.708Z,12.83
2018-12-24T22:48:45.820Z,12.27
2018-12-24T22:51:32.917Z,12.40
2018-12-24T22:54:20.001Z,12.53
2018-12-24T22:57:07.108Z,12.17
2018-12-24T22:59:54.739Z,12.50
2018-12-24T23:02:42.312Z,11.13
2018-12-24T23:05:29.555Z,11.37
2018-12-24T23:08:16.895Z,12.00
2018-12-24T23:11:04.061Z,12.00
2018-12-24T23:13:51.444Z,12.37
2018-12-24T23:16:38.636Z,12.00
2018-12-24T23:19:26.196Z,12.13
2018-12-24T23:22:13.541Z,12.53
2018-12-24T23:25:01.638Z,11.80
2018-12-24T23:27:49.108Z,12.27
2018-12-24T23:30:36.475Z,12.37
2018-12-24T23:33:23.859Z,12.87
2018-12-24T23:36:11.500Z,12.03
2018-12-24T23:38:59.400Z,11.97
2018-12-24T23:41:46.908Z,11.43
2018-12-24T23:44:34.522Z,11.77
2018-12-24T23:47:21.598Z,11.50
2018-12-24T23:50:08.650Z,11.37
2018-12-24T23:52:57.335Z,12.87
2018-12-24T23:55:45.081Z,11.77
2018-12-24T23:58:32.311Z,12.53
